sensor_id;sensor_type;location;lat;lon;timestamp;temperature;humidity
13446;DHT22;6795;51.232;3.764;2023-05-10T06:20:47;13.70;99.90
13446;DHT22;6795;51.232;3.764;2023-05-10T06:24:30;15.10;99.90
13446;DHT22;6795;51.232;3.764;2023-05-10T06:27:41;15.60;99.90
13446;DHT22;6795;51.232;3.764;2023-05-10T06:30:49;15.40;99.90
13446;DHT22;6795;51.232;3.764;2023-05-10T06:34:04;15.30;99.90
13446;DHT22;6795;51.232;3.764;2023-05-10T06:37:37;15.20;99.90
13446;DHT22;6795;51.232;3.764;2023-05-10T06:41:00;15.00;99.90
13446;DHT22;6795;51.232;3.764;2023-05-10T06:44:04;15.00;99.90
13446;DHT22;6795;51.232;3.764;2023-05-10T06:47:16;14.90;99.90
13446;DHT22;6795;51.232;3.764;2023-05-10T06:50:47;14.80;99.90
13446;DHT22;6795;51.232;3.764;2023-05-10T06:54:04;14.60;99.90
13446;DHT22;6795;51.232;3.764;2023-05-10T06:57:40;14.90;99.90
13446;DHT22;6795;51.232;3.764;2023-05-10T07:00:48;15.20;99.90
13446;DHT22;6795;51.232;3.764;2023-05-10T07:04:00;15.30;99.90
13446;DHT22;6795;51.232;3.764;2023-05-10T07:07:14;15.20;99.90
13446;DHT22;6795;51.232;3.764;2023-05-10T07:10:32;15.00;99.90
13446;DHT22;6795;51.232;3.764;2023-05-10T07:14:22;15.00;99.90
13446;DHT22;6795;51.232;3.764;2023-05-10T07:17:45;14.90;99.90
13446;DHT22;6795;51.232;3.764;2023-05-10T07:20:45;15.30;99.90
13446;DHT22;6795;51.232;3.764;2023-05-10T07:23:54;15.80;99.90
13446;DHT22;6795;51.232;3.764;2023-05-10T07:27:24;16.10;99.90
13446;DHT22;6795;51.232;3.764;2023-05-10T07:30:32;15.70;99.90
13446;DHT22;6795;51.232;3.764;2023-05-10T08:07:39;17.60;99.90
13446;DHT22;6795;51.232;3.764;2023-05-10T08:14:42;18.10;99.90
13446;DHT22;6795;51.232;3.764;2023-05-10T08:20:51;19.50;99.90
13446;DHT22;6795;51.232;3.764;2023-05-10T08:24:16;19.00;99.90
13446;DHT22;6795;51.232;3.764;2023-05-10T08:27:30;18.90;99.90
13446;DHT22;6795;51.232;3.764;2023-05-10T08:31:04;19.50;99.90
13446;DHT22;6795;51.232;3.764;2023-05-10T08:34:02;19.60;99.90
13446;DHT22;6795;51.232;3.764;2023-05-10T08:37:25;19.30;99.90
13446;DHT22;6795;51.232;3.764;2023-05-10T08:44:22;19.10;99.90
13446;DHT22;6795;51.232;3.764;2023-05-10T08:47:35;18.70;99.90
13446;DHT22;6795;51.232;3.764;2023-05-10T08:50:46;18.50;99.90
13446;DHT22;6795;51.232;3.764;2023-05-10T08:53:44;18.20;99.90
13446;DHT22;6795;51.232;3.764;2023-05-10T08:57:26;18.20;99.90
13446;DHT22;6795;51.232;3.764;2023-05-10T09:00:20;18.20;99.90
13446;DHT22;6795;51.232;3.764;2023-05-10T09:03:40;17.70;99.90
13446;DHT22;6795;51.232;3.764;2023-05-10T09:11:03;17.10;99.90
13446;DHT22;6795;51.232;3.764;2023-05-10T09:14:17;17.00;99.90
13446;DHT22;6795;51.232;3.764;2023-05-10T09:17:59;17.10;99.90
13446;DHT22;6795;51.232;3.764;2023-05-10T09:21:14;17.40;99.90
13446;DHT22;6795;51.232;3.764;2023-05-10T09:24:32;17.50;99.90
13446;DHT22;6795;51.232;3.764;2023-05-10T09:27:48;17.50;99.90
13446;DHT22;6795;51.232;3.764;2023-05-10T09:31:12;17.50;99.90
13446;DHT22;6795;51.232;3.764;2023-05-10T09:34:39;17.80;99.90
13446;DHT22;6795;51.232;3.764;2023-05-10T09:37:48;18.20;99.90
13446;DHT22;6795;51.232;3.764;2023-05-10T09:41:14;18.30;99.90
13446;DHT22;6795;51.232;3.764;2023-05-10T09:44:27;18.30;99.90
13446;DHT22;6795;51.232;3.764;2023-05-10T09:47:36;18.50;99.90
13446;DHT22;6795;51.232;3.764;2023-05-10T09:50:58;18.70;99.90
13446;DHT22;6795;51.232;3.764;2023-05-10T09:54:51;18.70;99.90
13446;DHT22;6795;51.232;3.764;2023-05-10T09:57:42;19.30;99.90
13446;DHT22;6795;51.232;3.764;2023-05-10T10:01:23;19.60;99.90
13446;DHT22;6795;51.232;3.764;2023-05-10T10:04:37;19.70;99.90
13446;DHT22;6795;51.232;3.764;2023-05-10T10:07:59;19.90;99.90
13446;DHT22;6795;51.232;3.764;2023-05-10T10:11:15;19.80;99.90
13446;DHT22;6795;51.232;3.764;2023-05-10T10:14:43;19.60;99.90
13446;DHT22;6795;51.232;3.764;2023-05-10T10:17:51;19.40;99.90
13446;DHT22;6795;51.232;3.764;2023-05-10T10:21:02;19.10;99.90
13446;DHT22;6795;51.232;3.764;2023-05-10T10:25:18;18.40;99.90
13446;DHT22;6795;51.232;3.764;2023-05-10T10:27:42;18.10;99.90
13446;DHT22;6795;51.232;3.764;2023-05-10T10:30:56;18.20;99.90
13446;DHT22;6795;51.232;3.764;2023-05-10T10:34:42;18.40;99.90
13446;DHT22;6795;51.232;3.764;2023-05-10T10:37:49;18.40;99.90
13446;DHT22;6795;51.232;3.764;2023-05-10T10:41:27;18.50;99.90
13446;DHT22;6795;51.232;3.764;2023-05-10T10:44:50;18.50;99.90
13446;DHT22;6795;51.232;3.764;2023-05-10T10:48:31;18.30;99.90
13446;DHT22;6795;51.232;3.764;2023-05-10T10:55:49;17.90;99.90
13446;DHT22;6795;51.232;3.764;2023-05-10T11:06:50;16.50;99.90
13446;DHT22;6795;51.232;3.764;2023-05-10T11:10:27;15.80;99.90
13446;DHT22;6795;51.232;3.764;2023-05-10T11:13:12;15.60;99.90
13446;DHT22;6795;51.232;3.764;2023-05-10T11:55:52;15.60;99.90
13446;DHT22;6795;51.232;3.764;2023-05-10T11:59:21;14.30;99.90
13446;DHT22;6795;51.232;3.764;2023-05-10T12:37:19;14.30;99.90
13446;DHT22;6795;51.232;3.764;2023-05-10T12:41:18;14.60;99.90
13446;DHT22;6795;51.232;3.764;2023-05-10T12:44:47;14.60;99.90
13446;DHT22;6795;51.232;3.764;2023-05-10T12:48:11;14.50;99.90
13446;DHT22;6795;51.232;3.764;2023-05-10T12:51:27;14.50;99.90
13446;DHT22;6795;51.232;3.764;2023-05-10T12:59:13;14.50;99.90
13446;DHT22;6795;51.232;3.764;2023-05-10T13:02:42;14.40;99.90
13446;DHT22;6795;51.232;3.764;2023-05-10T13:05:48;14.40;99.90
13446;DHT22;6795;51.232;3.764;2023-05-10T13:09:56;14.30;99.90
13446;DHT22;6795;51.232;3.764;2023-05-10T13:13:06;14.20;99.90
13446;DHT22;6795;51.232;3.764;2023-05-10T13:20:46;14.30;99.90
13446;DHT22;6795;51.232;3.764;2023-05-10T13:23:53;14.40;99.90
13446;DHT22;6795;51.232;3.764;2023-05-10T13:26:58;14.60;99.90
13446;DHT22;6795;51.232;3.764;2023-05-10T13:30:05;14.80;99.90
13446;DHT22;6795;51.232;3.764;2023-05-10T13:33:05;14.90;99.90
13446;DHT22;6795;51.232;3.764;2023-05-10T13:36:39;14.90;99.90
13446;DHT22;6795;51.232;3.764;2023-05-10T13:40:18;14.90;99.90
13446;DHT22;6795;51.232;3.764;2023-05-10T13:43:21;15.10;99.90
13446;DHT22;6795;51.232;3.764;2023-05-10T13:46:49;15.20;99.90
13446;DHT22;6795;51.232;3.764;2023-05-10T13:50:35;15.30;99.90
13446;DHT22;6795;51.232;3.764;2023-05-10T13:53:59;15.50;99.90
13446;DHT22;6795;51.232;3.764;2023-05-10T14:00:43;15.40;99.90
13446;DHT22;6795;51.232;3.764;2023-05-10T14:04:19;15.20;99.90
13446;DHT22;6795;51.232;3.764;2023-05-10T14:07:36;15.10;99.90
13446;DHT22;6795;51.232;3.764;2023-05-10T14:15:17;15.20;99.90
13446;DHT22;6795;51.232;3.764;2023-05-10T14:18:26;15.40;99.90
13446;DHT22;6795;51.232;3.764;2023-05-10T14:21:30;15.50;99.90
13446;DHT22;6795;51.232;3.764;2023-05-10T14:25:00;15.50;99.90
13446;DHT22;6795;51.232;3.764;2023-05-10T14:28:07;15.40;99.90
13446;DHT22;6795;51.232;3.764;2023-05-10T14:35:38;15.50;99.90
13446;DHT22;6795;51.232;3.764;2023-05-10T14:38:56;15.40;99.90
13446;DHT22;6795;51.232;3.764;2023-05-10T14:42:10;15.50;99.90
13446;DHT22;6795;51.232;3.764;2023-05-10T14:45:48;15.30;99.90
13446;DHT22;6795;51.232;3.764;2023-05-10T14:48:50;15.30;99.90
13446;DHT22;6795;51.232;3.764;2023-05-10T14:52:04;15.20;99.90
13446;DHT22;6795;51.232;3.764;2023-05-10T14:55:23;15.20;99.90
13446;DHT22;6795;51.232;3.764;2023-05-10T14:58:34;15.20;99.90
13446;DHT22;6795;51.232;3.764;2023-05-10T15:01:54;15.20;99.90
13446;DHT22;6795;51.232;3.764;2023-05-10T15:05:31;15.20;99.90
13446;DHT22;6795;51.232;3.764;2023-05-10T15:13:12;15.70;99.90
13446;DHT22;6795;51.232;3.764;2023-05-10T15:16:34;15.70;99.90
13446;DHT22;6795;51.232;3.764;2023-05-10T15:19:54;15.70;99.90
13446;DHT22;6795;51.232;3.764;2023-05-10T16:08:47;15.60;99.90
13446;DHT22;6795;51.232;3.764;2023-05-10T16:12:26;16.30;99.90
13446;DHT22;6795;51.232;3.764;2023-05-10T16:53:24;16.50;99.90
13446;DHT22;6795;51.232;3.764;2023-05-10T16:58:48;16.90;99.90
13446;DHT22;6795;51.232;3.764;2023-05-10T17:00:32;16.50;99.90
13446;DHT22;6795;51.232;3.764;2023-05-10T17:04:11;16.10;99.90
13446;DHT22;6795;51.232;3.764;2023-05-10T17:07:24;15.90;99.90
13446;DHT22;6795;51.232;3.764;2023-05-10T17:10:41;15.60;99.90
13446;DHT22;6795;51.232;3.764;2023-05-10T17:14:24;15.40;99.90
13446;DHT22;6795;51.232;3.764;2023-05-10T17:17:27;15.30;99.90
13446;DHT22;6795;51.232;3.764;2023-05-10T17:20:36;15.40;99.90
13446;DHT22;6795;51.232;3.764;2023-05-10T17:23:49;15.40;99.90
13446;DHT22;6795;51.232;3.764;2023-05-10T17:27:06;15.60;99.90
13446;DHT22;6795;51.232;3.764;2023-05-10T17:30:34;15.50;99.90
13446;DHT22;6795;51.232;3.764;2023-05-10T17:33:46;15.60;99.90
13446;DHT22;6795;51.232;3.764;2023-05-10T17:37:12;15.60;99.90
13446;DHT22;6795;51.232;3.764;2023-05-10T17:40:30;15.70;99.90
13446;DHT22;6795;51.232;3.764;2023-05-10T17:43:40;15.20;99.90
13446;DHT22;6795;51.232;3.764;2023-05-10T17:47:27;14.80;99.90
13446;DHT22;6795;51.232;3.764;2023-05-10T19:06:24;14.50;99.90
13446;DHT22;6795;51.232;3.764;2023-05-10T19:22:31;13.80;99.90
13446;DHT22;6795;51.232;3.764;2023-05-10T19:25:55;12.80;99.90
13446;DHT22;6795;51.232;3.764;2023-05-10T19:29:16;12.70;99.90
13446;DHT22;6795;51.232;3.764;2023-05-10T19:32:30;12.40;99.90
13446;DHT22;6795;51.232;3.764;2023-05-10T19:35:51;12.30;99.90
13446;DHT22;6795;51.232;3.764;2023-05-10T19:39:17;12.20;99.90
13446;DHT22;6795;51.232;3.764;2023-05-10T19:42:45;12.20;99.90
13446;DHT22;6795;51.232;3.764;2023-05-10T19:46:05;12.10;99.90
13446;DHT22;6795;51.232;3.764;2023-05-10T19:49:24;12.10;99.90
13446;DHT22;6795;51.232;3.764;2023-05-10T19:52:29;12.00;99.90
13446;DHT22;6795;51.232;3.764;2023-05-10T19:56:08;11.90;99.90
13446;DHT22;6795;51.232;3.764;2023-05-10T19:59:19;12.00;99.90
13446;DHT22;6795;51.232;3.764;2023-05-10T20:02:45;12.00;99.90
13446;DHT22;6795;51.232;3.764;2023-05-10T20:05:58;12.00;99.90
13446;DHT22;6795;51.232;3.764;2023-05-10T20:09:24;11.90;99.90
13446;DHT22;6795;51.232;3.764;2023-05-10T20:12:38;11.90;99.90
13446;DHT22;6795;51.232;3.764;2023-05-10T20:18:52;11.80;99.90
13446;DHT22;6795;51.232;3.764;2023-05-10T23:01:44;11.70;99.90
13446;DHT22;6795;51.232;3.764;2023-05-10T23:04:44;11.00;99.90
13446;DHT22;6795;51.232;3.764;2023-05-10T23:43:37;10.90;99.90
13446;DHT22;6795;51.232;3.764;2023-05-10T23:50:10;10.50;99.90
13446;DHT22;6795;51.232;3.764;2023-05-10T23:53:25;10.40;99.90
13446;DHT22;6795;51.232;3.764;2023-05-10T23:56:37;10.40;99.90
